Time;durP1;ratioP1;P1;durP2;ratioP2;P2;SDS_P1;SDS_P2;PMS_P1;PMS_P2;Temp;Humidity;BMP_temperature;BMP_pressure;BME280_temperature;BME280_humidity;BME280_pressure;Samples;Min_cycle;Max_cycle;Signal;HPM_P1;HPM_P2
2024/03/13 00:00:46;;;;;;;3.53;3.38;;;8.30;99.90;;;;;;5120144;28;20245;-84
2024/03/13 00:03:15;;;;;;;5.00;4.63;;;8.40;99.90;;;;;;5115683;28;20202;-84
2024/03/13 00:05:45;;;;;;;3.72;3.50;;;8.30;99.90;;;;;;5105427;28;20221;-83
2024/03/13 00:08:13;;;;;;;2.53;2.42;;;8.60;99.90;;;;;;5136126;27;20201;-84
2024/03/13 00:10:42;;;;;;;3.33;3.15;;;8.30;99.90;;;;;;5115273;27;20223;-84
2024/03/13 00:13:10;;;;;;;6.15;3.28;;;8.20;99.90;;;;;;5124328;27;20229;-83
2024/03/13 00:15:40;;;;;;;3.13;2.97;;;8.30;99.90;;;;;;5128607;27;20237;-84
2024/03/13 00:18:08;;;;;;;1.85;1.75;;;8.20;99.90;;;;;;5123670;27;20490;-83
2024/03/13 00:20:41;;;;;;;5.25;4.93;;;8.30;99.90;;;;;;5120172;27;20501;-85
2024/03/13 00:23:09;;;;;;;3.28;3.00;;;8.00;99.90;;;;;;5125389;27;20208;-85
2024/03/13 00:25:39;;;;;;;1.40;1.40;;;7.80;99.90;;;;;;5139651;27;20199;-85
2024/03/13 00:28:07;;;;;;;4.57;4.28;;;7.70;99.90;;;;;;5136028;27;20223;-86
2024/03/13 00:30:35;;;;;;;3.88;3.58;;;7.70;99.90;;;;;;5123904;27;20512;-85
2024/03/13 00:33:04;;;;;;;6.47;6.07;;;7.70;99.90;;;;;;5111266;28;20238;-84
2024/03/13 00:35:31;;;;;;;2.05;1.95;;;7.80;99.90;;;;;;5101771;28;20259;-84
2024/03/13 00:38:05;;;;;;;2.08;1.98;;;7.70;99.90;;;;;;5131330;27;20197;-84
2024/03/13 00:40:34;;;;;;;2.72;2.53;;;7.80;99.90;;;;;;5114153;28;20428;-83
2024/03/13 00:43:02;;;;;;;3.90;2.75;;;7.80;99.90;;;;;;5131102;27;20267;-84
2024/03/13 00:45:29;;;;;;;1.90;1.80;;;7.70;99.90;;;;;;5121737;27;20202;-84
2024/03/13 00:48:01;;;;;;;2.50;2.40;;;7.70;99.90;;;;;;5129722;28;20212;-83
2024/03/13 00:50:30;;;;;;;2.17;2.08;;;7.70;99.90;;;;;;5121442;28;20533;-83
2024/03/13 00:52:58;;;;;;;2.58;2.45;;;7.70;99.90;;;;;;5118221;28;20201;-83
2024/03/13 00:55:31;;;;;;;2.72;2.20;;;7.80;99.90;;;;;;5131564;28;20211;-83
2024/03/13 00:58:01;;;;;;;2.25;2.15;;;7.70;99.90;;;;;;5125289;28;20228;-83
2024/03/13 01:00:30;;;;;;;1.73;1.63;;;7.70;99.90;;;;;;5114674;28;20231;-81
2024/03/13 01:02:57;;;;;;;3.75;3.55;;;7.80;99.90;;;;;;5112618;28;20206;-83
2024/03/13 01:05:26;;;;;;;2.22;2.13;;;7.80;99.90;;;;;;5125951;28;20236;-81
2024/03/13 01:07:56;;;;;;;1.20;1.20;;;7.80;99.90;;;;;;5127675;27;20236;-82
2024/03/13 01:10:26;;;;;;;3.70;2.25;;;7.70;99.90;;;;;;5123824;28;20232;-83
2024/03/13 01:12:57;;;;;;;1.55;1.50;;;7.70;99.90;;;;;;5113319;28;20221;-81
2024/03/13 01:15:28;;;;;;;1.60;1.55;;;7.50;99.90;;;;;;5132356;27;20192;-81
2024/03/13 01:17:57;;;;;;;2.75;2.65;;;7.40;99.90;;;;;;5105656;27;20249;-82
2024/03/13 01:20:25;;;;;;;2.33;2.22;;;7.40;99.90;;;;;;5113125;27;20213;-86
2024/03/13 01:22:56;;;;;;;3.35;3.08;;;7.20;99.90;;;;;;5114761;28;20205;-84
2024/03/13 01:25:24;;;;;;;1.83;1.73;;;7.20;99.90;;;;;;5117527;27;20220;-83
2024/03/13 01:27:54;;;;;;;1.75;1.67;;;7.20;99.90;;;;;;5126730;27;20290;-84
2024/03/13 01:30:23;;;;;;;2.67;2.53;;;7.30;99.90;;;;;;5108253;27;20607;-84
2024/03/13 01:32:52;;;;;;;2.65;2.53;;;7.30;99.90;;;;;;5135746;27;20270;-90
2024/03/13 01:35:19;;;;;;;3.25;3.15;;;7.30;99.90;;;;;;5138829;27;20189;-89
2024/03/13 01:38:01;;;;;;;2.15;2.05;;;7.30;99.90;;;;;;5130628;28;20209;-89
2024/03/13 01:55:13;;;;;;;3.60;3.40;;;7.60;99.90;;;;;;5117764;22;20284;-88
2024/03/13 01:58:07;;;;;;;2.25;2.08;;;7.50;99.90;;;;;;5027341;28;20195;-91
2024/03/13 02:03:22;;;;;;;3.83;1.98;;;7.40;99.90;;;;;;5055567;28;20195;-88
2024/03/13 02:06:04;;;;;;;2.03;1.92;;;7.30;99.90;;;;;;5029165;28;20220;-90
2024/03/13 02:08:32;;;;;;;2.47;2.38;;;7.20;99.90;;;;;;5035489;28;20212;-90
2024/03/13 02:11:01;;;;;;;3.97;3.67;;;6.90;99.90;;;;;;5044724;28;20631;-84
2024/03/13 02:13:31;;;;;;;2.85;2.65;;;6.70;99.90;;;;;;5018864;28;20219;-84
2024/03/13 02:15:59;;;;;;;3.83;3.60;;;6.80;99.90;;;;;;5037114;28;20393;-84
2024/03/13 02:18:30;;;;;;;4.43;2.78;;;6.70;99.90;;;;;;5035288;28;20237;-82
2024/03/13 02:20:59;;;;;;;3.10;3.00;;;6.80;99.90;;;;;;5005399;28;20769;-83
2024/03/13 02:23:29;;;;;;;2.10;2.00;;;6.70;99.90;;;;;;5032636;28;20222;-82
2024/03/13 02:25:56;;;;;;;2.85;2.65;;;6.80;99.90;;;;;;5033740;28;20256;-85
2024/03/13 02:28:38;;;;;;;2.53;2.17;;;6.90;99.90;;;;;;5037974;28;20254;-85
2024/03/13 02:31:07;;;;;;;1.50;1.50;;;6.90;99.90;;;;;;5041348;28;20233;-85
2024/03/13 02:33:40;;;;;;;1.23;1.10;;;7.00;99.90;;;;;;5033087;28;20203;-84
2024/03/13 02:36:07;;;;;;;2.35;2.25;;;7.10;99.90;;;;;;5039681;28;20254;-84
2024/03/13 02:38:36;;;;;;;3.50;2.55;;;7.20;99.90;;;;;;5029381;28;20323;-84
2024/03/13 02:41:04;;;;;;;1.50;1.45;;;7.20;99.90;;;;;;5040056;28;20238;-84
2024/03/13 02:43:34;;;;;;;1.38;1.27;;;7.40;99.90;;;;;;5040768;28;20208;-85
2024/03/13 02:46:03;;;;;;;1.90;1.80;;;7.30;99.90;;;;;;5020407;28;20207;-84
2024/03/13 02:48:36;;;;;;;1.85;1.75;;;7.40;99.90;;;;;;5026304;28;20238;-82
2024/03/13 02:51:09;;;;;;;2.08;1.98;;;7.40;99.90;;;;;;5046607;28;20569;-84
2024/03/13 02:53:38;;;;;;;0.98;0.98;;;7.40;99.90;;;;;;5026968;28;20214;-84
2024/03/13 02:56:08;;;;;;;4.07;2.33;;;7.30;99.90;;;;;;5023947;28;20211;-84
2024/03/13 02:58:36;;;;;;;5.05;4.75;;;7.30;99.90;;;;;;5011348;28;20519;-82
2024/03/13 03:01:12;;;;;;;5.85;1.52;;;7.30;99.90;;;;;;5036370;28;20244;-81
2024/03/13 03:03:39;;;;;;;3.25;3.03;;;7.40;99.90;;;;;;5032278;28;20214;-83
2024/03/13 03:06:09;;;;;;;1.30;1.30;;;7.20;99.90;;;;;;5042094;28;20215;-82
2024/03/13 03:08:40;;;;;;;2.10;2.00;;;7.30;99.90;;;;;;5021122;28;20389;-83
2024/03/13 03:11:08;;;;;;;1.38;1.35;;;7.40;99.90;;;;;;5040717;28;20246;-83
2024/03/13 03:13:47;;;;;;;3.97;3.63;;;7.30;99.90;;;;;;5035922;28;20242;-83
2024/03/13 03:16:18;;;;;;;0.80;0.80;;;7.30;99.90;;;;;;5041027;28;20275;-83
2024/03/13 03:18:45;;;;;;;2.55;2.45;;;7.30;99.90;;;;;;5029238;28;20211;-83
2024/03/13 03:21:13;;;;;;;5.68;3.33;;;7.20;99.90;;;;;;5042024;28;20593;-82
2024/03/13 03:23:41;;;;;;;2.80;2.70;;;7.20;99.90;;;;;;5042488;28;20267;-83
2024/03/13 03:26:16;;;;;;;3.33;3.10;;;7.10;99.90;;;;;;5030385;28;20557;-82
2024/03/13 03:28:43;;;;;;;1.55;1.55;;;7.10;99.90;;;;;;5047476;28;20662;-81
2024/03/13 03:31:11;;;;;;;1.92;1.83;;;7.00;99.90;;;;;;5032433;28;20304;-82
2024/03/13 03:33:38;;;;;;;2.22;2.13;;;7.00;99.90;;;;;;5026032;28;20280;-82
2024/03/13 03:36:06;;;;;;;2.80;2.63;;;6.90;99.90;;;;;;5024019;28;20214;-81
2024/03/13 03:38:33;;;;;;;2.63;2.40;;;6.90;99.90;;;;;;5049044;28;20282;-82
2024/03/13 03:41:01;;;;;;;1.25;1.25;;;6.90;99.90;;;;;;5047829;28;20242;-83
2024/03/13 03:43:30;;;;;;;1.83;1.73;;;7.00;99.90;;;;;;5020010;28;20220;-81
2024/03/13 03:45:59;;;;;;;1.45;1.42;;;6.90;99.90;;;;;;5036765;28;20446;-81
2024/03/13 03:48:34;;;;;;;1.23;1.23;;;6.90;99.90;;;;;;5015903;28;20219;-81
2024/03/13 03:51:01;;;;;;;1.88;1.80;;;6.90;99.90;;;;;;5032668;28;20230;-81
2024/03/13 03:53:31;;;;;;;1.30;1.30;;;7.00;99.90;;;;;;5014046;28;20211;-83
2024/03/13 03:55:58;;;;;;;0.93;0.93;;;7.00;99.90;;;;;;5033116;28;20208;-82
2024/03/13 03:58:27;;;;;;;6.00;5.65;;;7.00;99.90;;;;;;5043360;28;20207;-83
2024/03/13 04:00:55;;;;;;;2.50;2.30;;;7.00;99.90;;;;;;5049790;28;20461;-82
2024/03/13 04:03:23;;;;;;;2.10;1.98;;;7.00;99.90;;;;;;5023007;28;20245;-83
2024/03/13 04:05:51;;;;;;;7.22;2.60;;;6.90;99.90;;;;;;5045016;28;20229;-83
2024/03/13 04:08:29;;;;;;;2.88;2.67;;;6.90;99.90;;;;;;5035825;28;20554;-90
2024/03/13 04:10:56;;;;;;;3.25;3.00;;;7.00;99.90;;;;;;5023837;28;20313;-85
2024/03/13 04:13:27;;;;;;;3.95;2.97;;;6.80;99.90;;;;;;5035622;28;20216;-87
2024/03/13 04:16:04;;;;;;;1.83;1.75;;;6.80;99.90;;;;;;5017215;28;20204;-87
2024/03/13 04:18:34;;;;;;;5.20;3.78;;;7.00;99.90;;;;;;5048409;28;20198;-84
2024/03/13 04:21:03;;;;;;;3.17;2.92;;;6.90;99.90;;;;;;5051678;28;20246;-87
2024/03/13 04:23:32;;;;;;;1.90;1.80;;;6.90;99.90;;;;;;5047297;28;20224;-87
2024/03/13 04:26:04;;;;;;;6.43;5.93;;;6.80;99.90;;;;;;5058020;28;20214;-86
2024/03/13 04:28:36;;;;;;;1.88;1.77;;;6.80;99.90;;;;;;5041616;28;20220;-88
2024/03/13 04:31:09;;;;;;;2.30;2.20;;;6.90;99.90;;;;;;5040832;28;20229;-86
2024/03/13 04:33:40;;;;;;;1.10;1.10;;;6.90;99.90;;;;;;5030170;28;20266;-89
2024/03/13 04:36:21;;;;;;;1.05;1.05;;;6.90;99.90;;;;;;5041048;28;20215;-86
2024/03/13 04:38:52;;;;;;;1.85;1.75;;;6.90;99.90;;;;;;5038113;28;20207;-89
2024/03/13 04:41:26;;;;;;;5.28;4.88;;;6.90;99.90;;;;;;5021115;28;20232;-85
2024/03/13 04:43:55;;;;;;;4.50;4.00;;;6.90;99.90;;;;;;5031362;28;20214;-89
2024/03/13 04:46:26;;;;;;;1.55;1.55;;;6.80;99.90;;;;;;5042279;28;20199;-89
2024/03/13 04:48:54;;;;;;;1.70;1.65;;;6.90;99.90;;;;;;5052387;28;20253;-87
2024/03/13 04:51:23;;;;;;;3.47;3.17;;;6.90;99.90;;;;;;5056430;28;20225;-87
2024/03/13 04:53:52;;;;;;;3.33;3.17;;;6.90;99.90;;;;;;5041298;28;20235;-87
2024/03/13 04:56:19;;;;;;;3.40;3.20;;;6.80;99.90;;;;;;5022334;28;20241;-88
2024/03/13 04:58:47;;;;;;;2.88;2.67;;;6.80;99.90;;;;;;5031428;28;20212;-88
2024/03/13 05:01:18;;;;;;;1.75;1.65;;;6.90;99.90;;;;;;5029341;28;20265;-84
2024/03/13 05:03:46;;;;;;;1.40;1.40;;;6.90;99.90;;;;;;5042199;28;20204;-85
2024/03/13 05:06:15;;;;;;;2.30;2.10;;;6.80;99.90;;;;;;5028268;28;20210;-85
2024/03/13 05:08:42;;;;;;;1.95;1.85;;;6.90;99.90;;;;;;5042668;28;20237;-86
2024/03/13 05:11:09;;;;;;;3.05;1.77;;;6.80;99.90;;;;;;5029933;28;20268;-86
2024/03/13 05:13:39;;;;;;;3.25;2.50;;;6.80;99.90;;;;;;5032846;28;20398;-84
2024/03/13 05:16:09;;;;;;;1.42;1.38;;;6.70;99.90;;;;;;5045127;28;20230;-84
2024/03/13 05:18:37;;;;;;;1.98;1.83;;;6.70;99.90;;;;;;5046105;28;20237;-85
2024/03/13 05:21:04;;;;;;;2.03;1.92;;;6.70;99.90;;;;;;5055583;28;20271;-84
2024/03/13 05:23:39;;;;;;;4.18;3.83;;;6.70;99.90;;;;;;5043389;28;20194;-87
2024/03/13 05:26:07;;;;;;;2.17;2.08;;;6.60;99.90;;;;;;5005917;28;20218;-83
2024/03/13 05:28:34;;;;;;;0.90;0.90;;;6.60;99.90;;;;;;5041689;28;20214;-82
2024/03/13 05:31:02;;;;;;;4.22;3.92;;;6.70;99.90;;;;;;5036980;28;20548;-84
2024/03/13 05:33:40;;;;;;;3.42;3.15;;;6.70;99.90;;;;;;5037766;28;20223;-83
2024/03/13 05:36:11;;;;;;;1.50;1.38;;;6.70;99.90;;;;;;5047384;28;20212;-82
2024/03/13 05:38:41;;;;;;;1.88;1.77;;;6.70;99.90;;;;;;5036779;28;20283;-84
2024/03/13 05:41:11;;;;;;;5.45;4.78;;;6.70;99.90;;;;;;5023280;28;20250;-84
2024/03/13 05:43:40;;;;;;;4.78;4.32;;;6.70;99.90;;;;;;5043807;28;20255;-84
2024/03/13 05:46:10;;;;;;;2.25;2.15;;;6.80;99.90;;;;;;5035156;28;20211;-84
2024/03/13 05:48:41;;;;;;;2.45;2.35;;;6.80;99.90;;;;;;5022344;28;20373;-83
2024/03/13 05:51:09;;;;;;;3.28;2.97;;;6.80;99.90;;;;;;5018478;28;20224;-85
2024/03/13 05:53:38;;;;;;;2.28;2.17;;;6.80;99.90;;;;;;5034969;28;20217;-83
2024/03/13 05:56:06;;;;;;;2.92;2.72;;;6.80;99.90;;;;;;5039673;28;20220;-85
2024/03/13 05:58:34;;;;;;;3.13;3.03;;;6.80;99.90;;;;;;5025675;28;20372;-85
2024/03/13 06:01:08;;;;;;;1.70;1.70;;;6.90;99.90;;;;;;5041592;28;20204;-87
2024/03/13 06:03:39;;;;;;;4.35;4.10;;;6.80;99.90;;;;;;5030990;28;20256;-86
2024/03/13 06:06:08;;;;;;;0.73;0.73;;;6.80;99.90;;;;;;5019283;28;20208;-87
2024/03/13 06:08:38;;;;;;;2.17;2.03;;;6.80;99.90;;;;;;5042847;28;20208;-85
2024/03/13 06:11:06;;;;;;;1.60;1.60;;;6.90;99.90;;;;;;5026330;28;20239;-84
2024/03/13 06:13:39;;;;;;;1.73;1.65;;;6.90;99.90;;;;;;5042800;28;20266;-86
2024/03/13 06:16:09;;;;;;;0.60;0.60;;;6.90;99.90;;;;;;5041248;28;20264;-84
2024/03/13 06:18:38;;;;;;;1.38;1.38;;;6.90;99.90;;;;;;5038341;28;20211;-84
2024/03/13 06:21:07;;;;;;;10.85;3.47;;;6.90;99.90;;;;;;5019951;28;20219;-84
2024/03/13 06:23:37;;;;;;;3.80;3.60;;;6.90;99.90;;;;;;5018329;28;20219;-84
2024/03/13 06:26:04;;;;;;;2.83;1.77;;;7.00;99.90;;;;;;5041152;28;20214;-82
2024/03/13 06:31:38;;;;;;;0.98;0.98;;;7.00;99.90;;;;;;5035652;28;20269;-83
2024/03/13 06:34:04;;;;;;;2.40;2.00;;;6.90;99.90;;;;;;5035669;28;20238;-84
2024/03/13 06:36:32;;;;;;;5.82;4.97;;;6.90;99.90;;;;;;5042282;28;20369;-84
2024/03/13 06:38:59;;;;;;;2.38;2.28;;;6.90;99.90;;;;;;5023429;28;20219;-86
2024/03/13 06:41:28;;;;;;;2.53;2.35;;;6.90;99.90;;;;;;5042098;28;20203;-84
2024/03/13 06:43:59;;;;;;;3.10;2.97;;;6.90;99.90;;;;;;5033895;28;20570;-83
2024/03/13 06:46:28;;;;;;;8.60;3.28;;;7.00;99.90;;;;;;5030469;28;20368;-83
2024/03/13 06:48:56;;;;;;;2.85;2.65;;;7.00;99.90;;;;;;5025008;28;20230;-84
2024/03/13 06:51:28;;;;;;;2.10;2.00;;;7.00;99.90;;;;;;5032727;28;20244;-83
2024/03/13 06:53:57;;;;;;;2.95;2.75;;;7.10;99.90;;;;;;5045392;28;20206;-84
2024/03/13 06:56:27;;;;;;;4.13;3.85;;;7.20;99.90;;;;;;5042810;28;20203;-83
2024/03/13 06:58:56;;;;;;;1.13;1.13;;;7.10;99.90;;;;;;5053185;28;20278;-85
2024/03/13 07:01:24;;;;;;;2.67;1.95;;;7.30;99.90;;;;;;5036989;28;20216;-82
2024/03/13 07:03:54;;;;;;;2.00;1.90;;;7.10;99.90;;;;;;5051792;28;20211;-83
2024/03/13 07:06:23;;;;;;;2.13;2.03;;;7.20;99.90;;;;;;5046480;28;20213;-86
2024/03/13 07:08:50;;;;;;;3.42;3.22;;;7.20;99.90;;;;;;5016059;28;20207;-85
2024/03/13 07:11:22;;;;;;;2.85;2.65;;;7.20;99.90;;;;;;5053762;28;20250;-85
2024/03/13 07:13:54;;;;;;;2.80;2.70;;;7.20;99.90;;;;;;5115723;22;20226;-85
2024/03/13 07:16:43;;;;;;;1.55;1.45;;;7.20;99.90;;;;;;5115614;28;20265;-86
2024/03/13 07:19:13;;;;;;;1.58;1.50;;;7.20;99.90;;;;;;5119299;28;20362;-87
2024/03/13 07:21:41;;;;;;;2.30;2.17;;;7.30;99.90;;;;;;5114341;28;20220;-85
2024/03/13 07:24:11;;;;;;;16.50;4.38;;;7.20;99.90;;;;;;5106375;28;20220;-85
2024/03/13 07:26:53;;;;;;;2.20;2.03;;;7.40;99.90;;;;;;5102918;28;20228;-89
2024/03/13 07:29:23;;;;;;;2.95;2.67;;;7.30;99.90;;;;;;5095415;28;20221;-86
2024/03/13 07:31:50;;;;;;;2.55;2.33;;;7.40;99.90;;;;;;5102577;28;20259;-85
2024/03/13 07:34:17;;;;;;;2.38;2.28;;;7.50;99.90;;;;;;5101703;28;20284;-85
2024/03/13 07:36:45;;;;;;;2.20;2.08;;;7.50;99.90;;;;;;5098529;28;20213;-85
2024/03/13 07:39:14;;;;;;;2.03;1.92;;;7.60;99.90;;;;;;5098475;28;20199;-85
2024/03/13 07:41:41;;;;;;;1.70;1.60;;;7.60;99.90;;;;;;5090922;28;20201;-85
2024/03/13 07:44:11;;;;;;;1.58;1.52;;;7.60;99.90;;;;;;5104133;28;20487;-85
2024/03/13 07:46:41;;;;;;;4.75;4.55;;;7.70;99.90;;;;;;5099181;28;20238;-86
2024/03/13 07:49:09;;;;;;;0.85;0.85;;;7.70;99.90;;;;;;5095718;28;20260;-86
2024/03/13 07:51:38;;;;;;;1.45;1.45;;;7.70;99.90;;;;;;5098761;28;20243;-86
2024/03/13 07:54:09;;;;;;;2.78;2.65;;;7.80;99.90;;;;;;5084607;28;20225;-86
2024/03/13 07:56:37;;;;;;;2.30;2.20;;;8.00;99.90;;;;;;5097009;28;20234;-85
2024/03/13 07:59:10;;;;;;;2.60;2.50;;;8.10;99.90;;;;;;5099169;28;20196;-86
2024/03/13 08:01:40;;;;;;;2.80;2.67;;;8.20;99.90;;;;;;5113650;28;20262;-86
2024/03/13 08:04:12;;;;;;;3.65;3.45;;;8.30;99.90;;;;;;5114861;28;20238;-85
2024/03/13 08:07:01;;;;;;;2.88;0.88;;;8.40;99.90;;;;;;5105936;28;20196;-85
2024/03/13 08:09:47;;;;;;;2.95;2.85;;;8.50;99.90;;;;;;5102039;28;20580;-85
2024/03/13 08:12:34;;;;;;;1.60;1.52;;;8.50;99.90;;;;;;5104874;28;20676;-85
2024/03/13 08:15:33;;;;;;;0.82;0.82;;;8.60;99.90;;;;;;5064680;23;20308;-86
2024/03/13 08:18:24;;;;;;;4.03;2.78;;;8.80;99.90;;;;;;5028602;28;20227;-87
2024/03/13 08:21:10;;;;;;;1.77;1.67;;;9.10;99.90;;;;;;5026431;28;20247;-85
2024/03/13 08:23:57;;;;;;;3.03;2.88;;;9.30;99.90;;;;;;5025231;28;20253;-85
2024/03/13 08:26:51;;;;;;;0.95;0.95;;;9.30;99.90;;;;;;5018628;28;20412;-85
2024/03/13 08:29:36;;;;;;;1.75;1.65;;;9.30;99.90;;;;;;5022182;28;20204;-89
2024/03/13 08:32:23;;;;;;;1.35;1.35;;;9.30;99.90;;;;;;5015958;28;20319;-84
2024/03/13 08:35:15;;;;;;;1.70;1.65;;;9.50;99.90;;;;;;5008044;28;20193;-86
2024/03/13 08:41:45;;;;;;;5.07;4.70;;;9.80;99.90;;;;;;5042444;28;20234;-84
2024/03/13 08:44:30;;;;;;;4.00;3.05;;;10.20;99.90;;;;;;5035767;28;20221;-83
2024/03/13 08:47:18;;;;;;;0.70;0.70;;;10.10;99.90;;;;;;5030753;28;20234;-85
2024/03/13 08:50:03;;;;;;;2.10;2.00;;;10.40;99.90;;;;;;5037973;28;20169;-84
2024/03/13 08:52:48;;;;;;;19.05;3.30;;;10.70;99.90;;;;;;5028083;28;20234;-86
2024/03/13 08:55:34;;;;;;;1.67;1.57;;;11.30;99.90;;;;;;5016514;28;20173;-85
2024/03/13 08:58:20;;;;;;;1.80;1.73;;;11.50;99.90;;;;;;5010037;28;20458;-87
2024/03/13 09:01:07;;;;;;;5.97;5.50;;;11.10;99.90;;;;;;5021703;28;20474;-88
2024/03/13 09:03:53;;;;;;;3.77;3.47;;;11.20;99.90;;;;;;5001860;28;20440;-84
2024/03/13 09:06:41;;;;;;;1.63;1.53;;;10.70;99.90;;;;;;5003302;28;20398;-85
2024/03/13 09:09:09;;;;;;;1.27;1.27;;;10.40;99.90;;;;;;5003402;28;20503;-85
2024/03/13 09:12:03;;;;;;;1.70;1.60;;;10.70;99.90;;;;;;5010279;28;20490;-84
2024/03/13 09:14:37;;;;;;;2.23;2.03;;;10.90;99.90;;;;;;5012601;28;20442;-86
2024/03/13 09:17:10;;;;;;;5.60;4.80;;;10.90;99.90;;;;;;5013002;28;20469;-86
2024/03/13 09:19:41;;;;;;;2.50;2.30;;;11.00;99.90;;;;;;5009097;28;20563;-86
2024/03/13 09:22:14;;;;;;;4.47;4.17;;;11.10;99.90;;;;;;5010869;28;20498;-84
2024/03/13 09:24:45;;;;;;;1.00;1.00;;;11.00;99.90;;;;;;4991421;28;20438;-85
2024/03/13 09:27:21;;;;;;;8.03;4.97;;;11.40;99.90;;;;;;5021719;28;20424;-87
2024/03/13 09:29:52;;;;;;;3.17;2.53;;;11.60;99.90;;;;;;5015129;28;20457;-86
2024/03/13 09:32:22;;;;;;;2.33;2.23;;;11.60;99.90;;;;;;5018964;28;20486;-85
2024/03/13 09:35:16;;;;;;;1.07;1.07;;;11.80;99.90;;;;;;5009837;28;20434;-87
2024/03/13 09:37:49;;;;;;;1.63;1.63;;;12.30;99.90;;;;;;5026862;28;20476;-86
2024/03/13 09:40:19;;;;;;;1.30;1.30;;;12.20;99.90;;;;;;5021250;28;20438;-86
2024/03/13 09:42:52;;;;;;;2.50;2.40;;;11.90;99.90;;;;;;5032464;28;20430;-86
2024/03/13 09:45:25;;;;;;;1.67;1.63;;;12.10;99.90;;;;;;5022595;28;20505;-86
2024/03/13 09:48:09;;;;;;;4.23;3.93;;;12.30;99.90;;;;;;5018585;28;20451;-85
2024/03/13 09:50:44;;;;;;;4.60;4.30;;;12.40;99.90;;;;;;5030164;28;20461;-86
2024/03/13 09:53:34;;;;;;;3.40;3.30;;;12.50;99.90;;;;;;5030041;28;20428;-86
2024/03/13 09:56:19;;;;;;;15.60;5.90;;;12.90;99.90;;;;;;5037370;28;20459;-87
2024/03/13 09:58:50;;;;;;;1.30;1.30;;;13.20;99.90;;;;;;5036883;28;20512;-85
2024/03/13 10:01:35;;;;;;;2.10;1.93;;;12.90;99.90;;;;;;5025171;28;20429;-85
2024/03/13 10:04:15;;;;;;;2.70;1.40;;;12.90;99.90;;;;;;5041144;28;20401;-87
2024/03/13 10:07:20;;;;;;;1.07;1.07;;;13.10;99.90;;;;;;5027448;28;20441;-85
2024/03/13 10:13:44;;;;;;;2.17;2.07;;;13.60;99.90;;;;;;5021438;28;20421;-85
2024/03/13 10:16:16;;;;;;;1.00;1.00;;;13.50;99.90;;;;;;5022528;28;20425;-86
2024/03/13 10:18:55;;;;;;;3.10;2.90;;;13.20;99.90;;;;;;5020973;28;20450;-88
2024/03/13 10:21:28;;;;;;;2.60;2.40;;;13.50;99.90;;;;;;5017342;28;20413;-86
2024/03/13 10:29:20;;;;;;;0.77;0.77;;;13.00;99.90;;;;;;1087955;23;20746;-87
2024/03/13 10:31:51;;;;;;;2.00;1.73;;;12.80;99.90;;;;;;5026388;28;20456;-89
2024/03/13 10:34:19;;;;;;;1.77;1.67;;;13.00;99.90;;;;;;5363414;23;20451;-88
2024/03/13 10:39:38;;;;;;;5.80;4.67;;;12.40;99.90;;;;;;5055854;28;20420;-89
2024/03/13 10:42:07;;;;;;;3.93;3.47;;;12.60;99.90;;;;;;5051479;28;20467;-89
2024/03/13 10:44:36;;;;;;;2.10;2.00;;;12.60;99.90;;;;;;5049102;28;20434;-86
2024/03/13 10:47:09;;;;;;;1.63;1.63;;;12.80;99.90;;;;;;5046949;28;20465;-86
2024/03/13 10:49:52;;;;;;;1.33;1.33;;;12.70;99.90;;;;;;5580635;23;20746;-88
2024/03/13 10:52:21;;;;;;;2.60;2.23;;;12.70;99.90;;;;;;5065754;28;20477;-87
2024/03/13 10:54:51;;;;;;;3.37;3.13;;;12.40;99.90;;;;;;5058484;28;20756;-88
2024/03/13 10:57:23;;;;;;;1.30;1.30;;;12.50;99.90;;;;;;5064194;28;20791;-87
2024/03/13 11:00:02;;;;;;;3.43;3.23;;;12.90;99.90;;;;;;5060295;28;20452;-88
2024/03/13 11:02:40;;;;;;;2.10;2.00;;;13.20;99.90;;;;;;5053660;28;20443;-88
2024/03/13 11:05:14;;;;;;;3.03;0.90;;;13.30;99.90;;;;;;5067498;28;20442;-87
2024/03/13 11:07:45;;;;;;;1.97;1.90;;;13.40;99.90;;;;;;5063343;28;21050;-86
2024/03/13 11:10:21;;;;;;;4.53;4.23;;;13.40;99.90;;;;;;5062184;28;20430;-89
2024/03/13 11:12:52;;;;;;;2.20;2.10;;;13.70;99.90;;;;;;5383116;23;20432;-85
2024/03/13 11:18:05;;;;;;;1.10;1.10;;;13.40;99.90;;;;;;5641717;23;20526;-86
2024/03/13 11:20:43;;;;;;;3.20;3.10;;;13.30;99.90;;;;;;4990478;28;20414;-85
2024/03/13 11:23:19;;;;;;;2.43;2.33;;;13.30;99.90;;;;;;4992180;28;20631;-86
2024/03/13 11:25:49;;;;;;;2.30;2.10;;;13.80;99.90;;;;;;4989396;28;20477;-88
2024/03/13 11:28:37;;;;;;;2.30;2.20;;;14.20;99.90;;;;;;4975640;28;20436;-87
2024/03/13 11:31:06;;;;;;;1.90;1.80;;;14.60;99.90;;;;;;4990321;28;20483;-88
2024/03/13 11:33:33;;;;;;;4.27;3.90;;;14.60;99.90;;;;;;4989412;28;20461;-89
2024/03/13 11:36:04;;;;;;;1.20;1.20;;;14.50;99.90;;;;;;4993864;28;20436;-90
2024/03/13 11:38:34;;;;;;;1.00;1.00;;;14.40;97.00;;;;;;4988101;28;20415;-88
2024/03/13 11:41:03;;;;;;;3.13;2.97;;;14.50;95.90;;;;;;4980802;28;20464;-88
2024/03/13 11:46:10;;;;;;;0.80;0.80;;;15.00;94.30;;;;;;5504718;23;20576;-91
2024/03/13 11:48:36;;;;;;;1.53;1.43;;;15.60;94.40;;;;;;4954815;29;20421;-86
2024/03/13 11:51:06;;;;;;;2.00;1.97;;;15.50;92.40;;;;;;5213108;23;20820;-87
2024/03/13 11:53:35;;;;;;;2.50;2.03;;;15.50;90.80;;;;;;4993371;28;20425;-87
2024/03/13 11:56:04;;;;;;;1.67;1.57;;;15.20;92.50;;;;;;4985934;28;20431;-86
2024/03/13 11:58:33;;;;;;;5.23;4.77;;;14.80;93.60;;;;;;5143522;23;20490;-86
2024/03/13 12:06:21;;;;;;;4.73;4.43;;;14.10;99.60;;;;;;5443699;23;20568;-89
2024/03/13 12:08:54;;;;;;;1.17;1.17;;;14.00;99.90;;;;;;4983137;28;20779;-83
2024/03/13 12:11:25;;;;;;;2.50;2.40;;;13.90;99.90;;;;;;4980246;28;20473;-84
2024/03/13 12:13:54;;;;;;;2.63;2.30;;;13.50;99.90;;;;;;4989052;28;20411;-86
2024/03/13 12:16:21;;;;;;;13.30;1.43;;;13.40;99.90;;;;;;4993241;28;20503;-89
2024/03/13 12:18:52;;;;;;;2.00;1.90;;;13.30;99.90;;;;;;4992343;28;20423;-88
2024/03/13 12:21:23;;;;;;;1.33;1.33;;;13.60;99.90;;;;;;4992817;28;20407;-92
2024/03/13 12:23:52;;;;;;;1.03;1.03;;;13.50;99.90;;;;;;4995443;28;20474;-89
2024/03/13 12:26:20;;;;;;;2.87;2.73;;;13.60;99.90;;;;;;4979217;28;20410;-88
2024/03/13 12:28:50;;;;;;;0.90;0.90;;;13.50;99.90;;;;;;4980910;28;20419;-87
2024/03/13 12:31:18;;;;;;;1.13;1.13;;;13.80;99.90;;;;;;4970755;28;20514;-88
2024/03/13 12:33:53;;;;;;;1.83;1.73;;;13.60;99.90;;;;;;4983304;28;20422;-87
2024/03/13 12:36:22;;;;;;;3.93;2.73;;;13.70;99.90;;;;;;4987722;28;20436;-86
2024/03/13 12:38:49;;;;;;;1.30;1.30;;;13.70;99.90;;;;;;4983815;28;20482;-86
2024/03/13 12:41:17;;;;;;;2.50;2.10;;;13.50;99.90;;;;;;4984467;28;20414;-90
2024/03/13 12:43:44;;;;;;;7.40;3.50;;;13.40;99.90;;;;;;4979727;28;20412;-88
2024/03/13 12:46:14;;;;;;;1.33;1.33;;;13.50;99.70;;;;;;4979405;28;20780;-88
2024/03/13 12:48:41;;;;;;;1.50;1.50;;;13.30;98.60;;;;;;4978403;28;20507;-84
2024/03/13 12:51:09;;;;;;;1.33;1.33;;;13.30;97.90;;;;;;4987455;28;20499;-85
2024/03/13 12:53:37;;;;;;;2.00;1.90;;;13.10;99.90;;;;;;4985627;28;20506;-84
2024/03/13 12:56:08;;;;;;;2.90;2.60;;;13.00;99.90;;;;;;4982437;28;20431;-84
2024/03/13 12:58:35;;;;;;;0.90;0.90;;;13.00;99.90;;;;;;4981812;28;20445;-86
2024/03/13 13:01:04;;;;;;;1.43;1.33;;;12.80;99.90;;;;;;4979921;28;20537;-87
2024/03/13 13:03:32;;;;;;;1.77;1.67;;;12.60;99.90;;;;;;4979577;28;20422;-86
2024/03/13 13:06:00;;;;;;;0.53;0.53;;;12.50;99.90;;;;;;5117356;23;20486;-87
2024/03/13 13:08:30;;;;;;;2.70;2.33;;;12.30;99.90;;;;;;4990523;28;20516;-90
2024/03/13 13:10:57;;;;;;;1.27;1.17;;;12.20;99.90;;;;;;5189290;23;20512;-87
2024/03/13 13:13:26;;;;;;;1.00;1.00;;;12.10;99.90;;;;;;4979944;28;20468;-88
2024/03/13 13:15:56;;;;;;;1.00;1.00;;;12.10;99.90;;;;;;5031089;23;20560;-87
2024/03/13 13:18:23;;;;;;;1.17;1.17;;;12.10;99.90;;;;;;4963754;28;20427;-87
2024/03/13 13:20:51;;;;;;;1.60;1.53;;;12.20;99.90;;;;;;5096706;23;20450;-87
2024/03/13 13:23:20;;;;;;;2.57;2.47;;;12.00;99.90;;;;;;4993784;28;20435;-86
2024/03/13 13:25:47;;;;;;;2.23;2.13;;;12.00;99.90;;;;;;5034983;23;20490;-85
2024/03/13 13:28:15;;;;;;;1.80;1.70;;;12.00;99.90;;;;;;4964694;28;20447;-89
2024/03/13 13:30:45;;;;;;;2.33;2.20;;;12.00;99.90;;;;;;4968750;28;20234;-86
2024/03/13 13:33:12;;;;;;;1.97;1.87;;;11.90;99.90;;;;;;4991238;23;20498;-88
2024/03/13 13:35:40;;;;;;;1.90;1.80;;;12.00;99.90;;;;;;4981845;28;20425;-89
2024/03/13 13:38:11;;;;;;;1.73;1.70;;;12.00;99.90;;;;;;4979099;28;20537;-87
2024/03/13 13:40:39;;;;;;;6.43;2.77;;;12.00;99.90;;;;;;4977092;28;20427;-84
2024/03/13 13:43:09;;;;;;;1.90;1.17;;;11.90;99.90;;;;;;4970106;28;20467;-84
2024/03/13 13:45:38;;;;;;;1.98;1.88;;;11.90;99.90;;;;;;5182617;23;20573;-86
2024/03/13 13:48:09;;;;;;;2.45;2.35;;;11.90;99.90;;;;;;4970003;28;20205;-85
2024/03/13 13:50:37;;;;;;;3.40;3.20;;;12.00;99.90;;;;;;4973752;28;20223;-84
2024/03/13 13:53:05;;;;;;;0.60;0.60;;;12.00;99.90;;;;;;5279139;23;20353;-88
2024/03/13 13:55:34;;;;;;;1.02;1.02;;;11.90;99.90;;;;;;4988455;28;20234;-86
2024/03/13 13:58:03;;;;;;;2.15;2.05;;;12.00;99.90;;;;;;4982406;28;20201;-86
2024/03/13 14:00:32;;;;;;;4.85;3.33;;;12.00;99.90;;;;;;5114572;23;20239;-85
2024/03/13 14:02:59;;;;;;;1.58;1.58;;;12.00;99.90;;;;;;4983198;28;20209;-86